Aeroporto :
LOGIN :

Iscrizione | Disclaimer

   EN    FR    IT 

 










Sommario :    VFR   VFR Marginale   IFR   IFR Intensivo   IFR Molto Intensivo
Visibilità : 
Base nubi : 
>= 8 km
>= 3000ft
5 / 8 km
1000 / 3000 ft
1500m / 5 km
500 / 1000 ft
800 / 1500m
200 / 500 ft
< 800m
< 200 ft
Simboli :   Temporali  Nebbia  Neve Forte  Precipitazioni Forti  Vento > 20 kt
SIGMETs :   Varie  Temporali  Ghiacco  Turbolenza  Onda orograficha  Ceneri Vulcaniche







- Altitudine del aeroporto : 277 ft
- Codice IATA : JER
- Carte del aeroporto


EGJJ - Jersey

ULTIMO METAR :
  • 200850Z 28006KT 250V310 9999 FEW005 15/13 Q1013

METARs OBSOLETI :
  • 200820Z 27006KT 9999 SCT005 14/12 Q1013
  • 200750Z 28004KT 250V320 9999 FEW006 13/12 Q1013
  • 200720Z 31004KT 9999 FEW005 12/12 Q1013
  • 200650Z 30004KT 270V330 9999 FEW004 12/11 Q1012
  • 200620Z 32003KT 290V350 7000 FEW004 12/11 Q1012

TAF TAF EGJJ
Valido dal 20 a 09 ore il 20 a 18 ore UTC


200756Z 2009/2018 32006KT 9999 FEW008
ATIS : +44 1534 498 073
Nessun NOTAM noto per questo aeroporto.



MetMap, La meteo Aeronautica in un colpo d'occhio ! - Copyright ORBIFLY Dicembre 2007 - Disclaimer

ORBIFLY MET'MAP TEAM :

Programmazione e sviluppo : Alexandra Zaïnal
Concezione e sviluppo : Baudouin d'Aumeries
Co-Programmazione e sviluppo : Marc-Olivier Méhu
Supporto tecnico e logistico : Manuel Goepfert
Aiuto per la traduzione : Arnaldo La Scala

Contatto : metmap@orbifly.com




FONTI E CREDITI :

   NOAA